Time;durP1;ratioP1;P1;durP2;ratioP2;P2;SDS_P1;SDS_P2;PMS_P1;PMS_P2;Temp;Humidity;BMP_temperature;BMP_pressure;BME280_temperature;BME280_humidity;BME280_pressure;Samples;Min_cycle;Max_cycle;Signal;HPM_P1;HPM_P2
2022/02/20 00:01:24;;;;;;;2.55;1.08;;;17.60;61.30;;;;;;5076351;28;20024;-69
2022/02/20 00:03:50;;;;;;;5.35;0.98;;;17.60;61.30;;;;;;5094026;28;20032;-69
2022/02/20 00:06:16;;;;;;;2.83;1.10;;;17.60;61.40;;;;;;5093878;28;20047;-69
2022/02/20 00:08:42;;;;;;;2.45;0.90;;;17.60;61.30;;;;;;5093538;28;20012;-69
2022/02/20 00:11:08;;;;;;;3.53;1.20;;;17.60;61.40;;;;;;5075889;28;20099;-69
2022/02/20 00:13:33;;;;;;;4.28;1.48;;;17.60;61.50;;;;;;5075754;28;20080;-69
2022/02/20 00:15:59;;;;;;;4.63;1.30;;;17.60;61.50;;;;;;5093607;28;20044;-69
2022/02/20 00:18:25;;;;;;;4.38;0.95;;;17.60;61.50;;;;;;5075540;28;20031;-69
2022/02/20 00:20:50;;;;;;;5.32;1.55;;;17.60;61.50;;;;;;5087860;28;20032;-69
2022/02/20 00:23:16;;;;;;;2.72;0.90;;;17.60;61.50;;;;;;5073212;28;20028;-69
2022/02/20 00:25:42;;;;;;;3.58;1.55;;;17.50;61.50;;;;;;5073143;28;20111;-69
2022/02/20 00:28:08;;;;;;;2.35;1.00;;;17.50;61.50;;;;;;5045452;28;20023;-69
2022/02/20 00:30:33;;;;;;;2.63;1.05;;;17.50;61.50;;;;;;5058919;28;20024;-69
2022/02/20 00:33:00;;;;;;;3.05;1.10;;;17.50;61.60;;;;;;5093131;28;20473;-69
2022/02/20 00:35:29;;;;;;;3.15;1.20;;;17.50;61.50;;;;;;5093537;28;20027;-69
2022/02/20 00:37:55;;;;;;;2.72;1.00;;;17.50;61.50;;;;;;5093080;28;20026;-69
2022/02/20 00:40:21;;;;;;;2.17;1.02;;;17.50;61.60;;;;;;5058662;28;20020;-69
2022/02/20 00:42:47;;;;;;;3.67;1.23;;;17.50;61.60;;;;;;5093245;28;20057;-69
2022/02/20 00:45:12;;;;;;;2.40;1.20;;;17.50;61.70;;;;;;5075123;28;20101;-69
2022/02/20 00:47:38;;;;;;;3.22;1.20;;;17.50;61.70;;;;;;5075050;28;20097;-69
2022/02/20 00:50:04;;;;;;;3.13;1.23;;;17.50;61.70;;;;;;5093064;28;20028;-69
2022/02/20 00:52:30;;;;;;;2.88;1.00;;;17.50;61.70;;;;;;5092860;28;20024;-69
2022/02/20 00:54:55;;;;;;;3.42;1.23;;;17.50;61.70;;;;;;5092857;28;20098;-68
2022/02/20 00:57:21;;;;;;;2.90;1.27;;;17.50;61.80;;;;;;5074373;28;20024;-68
2022/02/20 00:59:47;;;;;;;2.92;1.20;;;17.50;61.70;;;;;;5074932;28;20020;-68
2022/02/20 01:02:13;;;;;;;2.50;1.25;;;17.50;61.70;;;;;;5092852;28;20021;-69
2022/02/20 01:04:39;;;;;;;3.95;1.23;;;17.50;61.80;;;;;;5092772;28;20030;-68
2022/02/20 01:07:04;;;;;;;2.63;1.05;;;17.50;61.80;;;;;;5092734;28;20024;-68
2022/02/20 01:09:30;;;;;;;3.40;1.23;;;17.50;61.80;;;;;;5092726;28;20405;-68
2022/02/20 01:11:55;;;;;;;3.15;1.30;;;17.50;61.80;;;;;;5092653;28;20072;-68
2022/02/20 01:14:21;;;;;;;3.33;0.98;;;17.50;61.80;;;;;;5092702;28;20035;-68
2022/02/20 01:16:47;;;;;;;3.88;1.65;;;17.50;61.80;;;;;;5074607;28;20027;-68
2022/02/20 01:19:12;;;;;;;2.80;1.00;;;17.50;61.80;;;;;;5092433;28;20035;-68
2022/02/20 01:21:38;;;;;;;3.30;1.23;;;17.50;61.90;;;;;;5092465;28;20027;-68
2022/02/20 01:24:04;;;;;;;2.22;0.88;;;17.50;61.90;;;;;;5092652;28;20031;-68
2022/02/20 01:26:29;;;;;;;2.58;1.10;;;17.50;61.90;;;;;;5092709;28;20496;-68
2022/02/20 01:28:55;;;;;;;3.08;1.27;;;17.50;62.00;;;;;;5092347;28;20028;-68
2022/02/20 01:31:21;;;;;;;4.00;1.20;;;17.50;61.90;;;;;;5074496;28;20047;-69
2022/02/20 01:33:46;;;;;;;3.53;1.23;;;17.40;61.90;;;;;;5074018;28;20472;-69
2022/02/20 01:36:12;;;;;;;2.00;0.80;;;17.50;62.00;;;;;;5092328;28;20026;-69
2022/02/20 01:38:38;;;;;;;2.97;1.20;;;17.40;61.90;;;;;;5092546;28;20032;-68
2022/02/20 01:41:03;;;;;;;3.30;0.77;;;17.40;62.00;;;;;;5092380;28;20028;-68
2022/02/20 01:43:29;;;;;;;2.15;1.15;;;17.50;62.10;;;;;;5092405;28;20062;-68
2022/02/20 01:45:55;;;;;;;3.72;1.33;;;17.40;62.00;;;;;;5074395;28;20062;-69
2022/02/20 01:48:21;;;;;;;4.20;1.08;;;17.40;62.00;;;;;;5091964;28;20028;-68
2022/02/20 01:50:47;;;;;;;4.88;1.38;;;17.40;62.10;;;;;;5057660;28;20028;-68
2022/02/20 01:53:13;;;;;;;2.95;1.15;;;17.40;62.10;;;;;;5074407;28;20574;-68
2022/02/20 01:55:39;;;;;;;2.35;1.10;;;17.40;62.10;;;;;;5074183;28;20102;-69
2022/02/20 01:58:04;;;;;;;2.50;1.10;;;17.40;62.20;;;;;;5092165;28;20020;-68
2022/02/20 02:00:30;;;;;;;2.88;0.98;;;17.40;62.20;;;;;;5092333;28;20371;-68
2022/02/20 02:02:56;;;;;;;2.35;1.20;;;17.40;62.20;;;;;;5091723;28;20555;-68
2022/02/20 02:05:21;;;;;;;2.80;0.88;;;17.40;63.20;;;;;;5092223;28;20024;-68
2022/02/20 02:07:49;;;;;;;3.67;1.15;;;17.40;62.20;;;;;;5092021;28;20028;-68
2022/02/20 02:10:15;;;;;;;4.45;1.45;;;17.40;62.30;;;;;;5077763;28;20380;-68
2022/02/20 02:12:40;;;;;;;3.17;1.08;;;17.40;62.20;;;;;;5096140;28;20028;-68
2022/02/20 02:15:08;;;;;;;2.83;1.45;;;17.40;62.30;;;;;;5095913;28;20424;-68
2022/02/20 02:17:33;;;;;;;2.00;1.00;;;17.40;62.30;;;;;;5077850;28;20098;-68
2022/02/20 02:19:59;;;;;;;3.13;1.15;;;17.40;62.30;;;;;;5096036;28;20052;-68
2022/02/20 02:22:26;;;;;;;3.38;1.42;;;17.40;62.30;;;;;;5059353;28;20117;-68
2022/02/20 02:24:52;;;;;;;3.47;1.15;;;17.40;62.40;;;;;;5057486;28;20094;-68
2022/02/20 02:27:18;;;;;;;3.25;1.30;;;17.40;62.30;;;;;;5075751;28;20056;-68
2022/02/20 02:29:44;;;;;;;4.15;1.10;;;17.40;62.30;;;;;;5095366;28;20055;-68
2022/02/20 02:32:10;;;;;;;1.98;1.35;;;17.40;62.40;;;;;;5060494;28;20097;-69
2022/02/20 02:34:35;;;;;;;3.83;1.63;;;17.40;62.40;;;;;;5095847;28;20027;-69
2022/02/20 02:37:01;;;;;;;3.38;1.00;;;17.30;62.40;;;;;;5077489;28;20107;-69
2022/02/20 02:39:27;;;;;;;2.30;0.95;;;17.40;62.40;;;;;;5095700;28;20099;-68
2022/02/20 02:41:53;;;;;;;3.45;1.40;;;17.40;62.50;;;;;;5095658;28;20103;-68
2022/02/20 02:44:18;;;;;;;3.90;1.10;;;17.30;62.40;;;;;;5077433;28;20024;-68
2022/02/20 02:46:44;;;;;;;4.00;1.02;;;17.30;62.50;;;;;;5095269;28;20043;-69
2022/02/20 02:49:12;;;;;;;4.65;1.13;;;17.30;62.50;;;;;;5077471;28;20111;-68
2022/02/20 02:51:38;;;;;;;2.33;1.10;;;17.30;62.50;;;;;;5095476;28;20036;-68
2022/02/20 02:54:08;;;;;;;2.53;1.10;;;17.30;62.50;;;;;;5077310;28;20494;-68
2022/02/20 02:56:34;;;;;;;2.58;1.17;;;17.30;62.50;;;;;;5095130;28;20032;-68
2022/02/20 02:59:00;;;;;;;3.67;1.00;;;17.30;62.50;;;;;;5095161;28;20074;-68
2022/02/20 03:01:25;;;;;;;3.97;1.02;;;17.30;62.50;;;;;;5076969;28;20487;-68
2022/02/20 03:03:51;;;;;;;2.75;1.10;;;17.30;62.60;;;;;;5077291;28;20069;-69
2022/02/20 03:06:17;;;;;;;3.35;1.40;;;17.30;62.60;;;;;;5095075;28;20032;-69
2022/02/20 03:08:42;;;;;;;3.22;1.67;;;17.30;62.70;;;;;;5095235;28;20048;-68
2022/02/20 03:11:08;;;;;;;3.40;1.30;;;17.30;62.60;;;;;;5094797;28;20979;-68
2022/02/20 03:13:34;;;;;;;2.65;1.13;;;17.30;62.60;;;;;;5094935;28;20031;-68
2022/02/20 03:16:00;;;;;;;5.18;1.20;;;17.30;62.60;;;;;;5076459;28;20020;-68
2022/02/20 03:18:29;;;;;;;2.80;1.20;;;17.30;62.70;;;;;;5077173;28;20020;-68
2022/02/20 03:21:01;;;;;;;2.75;1.48;;;17.30;63.70;;;;;;5094065;28;20020;-68
2022/02/20 03:23:27;;;;;;;4.15;1.33;;;17.30;62.70;;;;;;5095086;28;20486;-68
2022/02/20 03:25:52;;;;;;;2.75;1.20;;;17.30;62.70;;;;;;5076749;28;20035;-68
2022/02/20 03:28:18;;;;;;;2.35;0.95;;;17.30;62.80;;;;;;5094810;28;20440;-68
2022/02/20 03:30:44;;;;;;;3.33;1.50;;;17.30;62.80;;;;;;5076191;28;20055;-68
2022/02/20 03:33:10;;;;;;;2.88;1.30;;;17.30;62.80;;;;;;5094437;28;20048;-68
2022/02/20 03:35:35;;;;;;;4.82;1.40;;;17.30;62.80;;;;;;5094570;28;20081;-68
2022/02/20 03:38:01;;;;;;;3.00;1.33;;;17.20;62.70;;;;;;5076705;28;20486;-68
2022/02/20 03:40:27;;;;;;;2.28;1.20;;;17.30;62.80;;;;;;5094510;28;20132;-68
2022/02/20 03:42:52;;;;;;;4.50;1.48;;;17.20;62.80;;;;;;5059820;28;20024;-68
2022/02/20 03:45:18;;;;;;;5.82;1.27;;;17.30;62.80;;;;;;5093970;28;20028;-68
2022/02/20 03:47:44;;;;;;;7.25;1.00;;;17.20;62.80;;;;;;5076434;28;20032;-68
2022/02/20 03:50:09;;;;;;;3.42;1.23;;;17.20;62.80;;;;;;5076405;28;20103;-68
2022/02/20 03:52:35;;;;;;;5.57;1.77;;;17.20;62.80;;;;;;5076292;28;20115;-68
2022/02/20 03:55:01;;;;;;;3.92;1.17;;;17.20;62.90;;;;;;5076310;28;20024;-68
2022/02/20 03:57:26;;;;;;;2.78;1.13;;;17.20;62.80;;;;;;5094063;28;20012;-68
2022/02/20 03:59:52;;;;;;;3.28;1.25;;;17.20;62.90;;;;;;5075829;28;20024;-68
2022/02/20 04:02:18;;;;;;;2.47;1.00;;;17.20;62.90;;;;;;5094038;28;20024;-68
2022/02/20 04:04:43;;;;;;;2.53;1.40;;;17.20;62.90;;;;;;5094117;28;20103;-68
2022/02/20 04:07:09;;;;;;;3.72;1.20;;;17.20;62.90;;;;;;5075791;28;20076;-68
2022/02/20 04:09:34;;;;;;;3.72;1.38;;;17.20;62.90;;;;;;5094057;28;20149;-68
2022/02/20 04:12:00;;;;;;;3.33;1.05;;;17.20;63.00;;;;;;5093706;28;20411;-68
2022/02/20 04:14:26;;;;;;;2.85;1.15;;;17.20;62.90;;;;;;5093643;28;20455;-68
2022/02/20 04:16:51;;;;;;;3.20;1.15;;;17.20;63.00;;;;;;5093774;28;20012;-68
2022/02/20 04:19:17;;;;;;;6.05;1.50;;;17.20;63.00;;;;;;5093608;28;20421;-68
2022/02/20 04:21:42;;;;;;;2.78;1.27;;;17.20;63.00;;;;;;5062760;28;20055;-68
2022/02/20 04:24:08;;;;;;;4.13;1.40;;;17.20;63.00;;;;;;5073243;28;20032;-69
2022/02/20 04:26:34;;;;;;;3.63;1.48;;;17.20;63.10;;;;;;5073427;28;20130;-69
2022/02/20 04:28:59;;;;;;;2.33;1.10;;;17.20;63.00;;;;;;5086623;28;20024;-69
2022/02/20 04:31:25;;;;;;;5.35;1.55;;;17.20;63.10;;;;;;5093459;28;20043;-69
2022/02/20 04:33:51;;;;;;;3.70;1.10;;;17.20;63.10;;;;;;5092489;28;20029;-69
2022/02/20 04:36:16;;;;;;;3.25;1.33;;;17.20;63.20;;;;;;5075281;28;20368;-69
2022/02/20 04:38:42;;;;;;;3.55;1.33;;;17.20;63.10;;;;;;5075576;28;20477;-69
2022/02/20 04:41:07;;;;;;;11.40;1.70;;;17.20;63.10;;;;;;5093189;28;20020;-69
2022/02/20 04:43:33;;;;;;;4.28;1.40;;;17.20;63.20;;;;;;5075051;28;20039;-69
2022/02/20 04:45:59;;;;;;;4.22;1.40;;;17.20;63.20;;;;;;5075161;28;20020;-68
2022/02/20 04:48:25;;;;;;;5.32;1.55;;;17.10;63.10;;;;;;5075199;28;20448;-69
2022/02/20 04:50:50;;;;;;;2.92;1.30;;;17.20;63.20;;;;;;5093135;28;20490;-69
2022/02/20 04:53:16;;;;;;;5.32;1.50;;;17.10;63.20;;;;;;5092959;28;20060;-68
2022/02/20 04:55:41;;;;;;;3.55;1.40;;;17.20;63.20;;;;;;5075035;28;20024;-69
2022/02/20 04:58:08;;;;;;;2.50;1.33;;;17.10;63.20;;;;;;5092575;28;20406;-69
2022/02/20 05:00:34;;;;;;;3.45;1.30;;;17.10;63.20;;;;;;5075343;28;20434;-69
2022/02/20 05:03:00;;;;;;;7.20;1.63;;;17.20;63.30;;;;;;5057802;28;20066;-68
2022/02/20 05:05:26;;;;;;;4.43;1.45;;;17.10;63.20;;;;;;5075126;28;20020;-69
2022/02/20 05:07:51;;;;;;;3.15;1.38;;;17.10;63.30;;;;;;5092891;28;20110;-68
2022/02/20 05:10:17;;;;;;;5.13;1.75;;;17.10;63.30;;;;;;5092640;28;20024;-69
2022/02/20 05:12:42;;;;;;;4.50;1.67;;;17.10;63.20;;;;;;5092410;28;20074;-69
2022/02/20 05:15:08;;;;;;;3.55;1.42;;;17.10;63.30;;;;;;5092574;28;20020;-68
2022/02/20 05:17:38;;;;;;;3.75;1.30;;;17.20;63.40;;;;;;5074721;28;20077;-69
2022/02/20 05:20:04;;;;;;;4.90;1.65;;;17.10;63.40;;;;;;5074777;28;20107;-69
2022/02/20 05:22:29;;;;;;;3.35;1.40;;;17.10;63.30;;;;;;5074372;28;20059;-69
2022/02/20 05:24:56;;;;;;;4.25;1.70;;;17.20;63.40;;;;;;5092536;28;20032;-69
2022/02/20 05:27:22;;;;;;;4.18;1.58;;;17.20;63.40;;;;;;5092284;28;20031;-69
2022/02/20 05:29:48;;;;;;;2.40;1.13;;;17.10;63.40;;;;;;5074610;28;20024;-68
2022/02/20 05:32:23;;;;;;;5.22;1.58;;;17.20;63.40;;;;;;5092214;28;20521;-69
2022/02/20 05:34:52;;;;;;;5.93;1.60;;;17.10;63.40;;;;;;5092669;28;20043;-69
2022/02/20 05:37:21;;;;;;;4.32;1.60;;;17.10;63.40;;;;;;5074294;28;20032;-69
2022/02/20 05:39:46;;;;;;;4.38;1.60;;;17.10;63.50;;;;;;5092652;28;20089;-69
2022/02/20 05:42:13;;;;;;;3.50;1.63;;;17.10;63.50;;;;;;5073971;28;20062;-68
2022/02/20 05:44:38;;;;;;;4.32;1.77;;;17.10;63.50;;;;;;5057673;28;20028;-68
2022/02/20 05:47:04;;;;;;;4.15;1.83;;;17.10;63.50;;;;;;5092111;28;20455;-68
2022/02/20 05:49:30;;;;;;;4.97;1.80;;;17.10;63.50;;;;;;5092335;28;20020;-68
2022/02/20 05:51:55;;;;;;;5.18;1.70;;;17.10;63.50;;;;;;5092458;28;20111;-68
2022/02/20 05:54:21;;;;;;;5.90;1.60;;;17.10;63.50;;;;;;5092431;28;20103;-68
2022/02/20 05:56:46;;;;;;;4.80;1.60;;;17.10;63.50;;;;;;5073931;28;20103;-68
2022/02/20 05:59:12;;;;;;;2.97;1.25;;;17.10;63.50;;;;;;5092216;28;20506;-68
2022/02/20 06:01:38;;;;;;;4.47;1.40;;;17.10;63.50;;;;;;5074332;28;20024;-68
2022/02/20 06:04:04;;;;;;;4.72;1.40;;;17.10;63.50;;;;;;5074405;28;20073;-68
2022/02/20 06:06:32;;;;;;;5.32;1.67;;;17.10;63.60;;;;;;5092301;28;20031;-68
2022/02/20 06:09:01;;;;;;;5.38;1.80;;;17.10;63.60;;;;;;5074675;28;20493;-68
2022/02/20 06:11:27;;;;;;;4.75;1.70;;;17.10;63.60;;;;;;5091651;28;20024;-68
2022/02/20 06:13:53;;;;;;;4.03;1.55;;;17.10;63.60;;;;;;5092128;28;20580;-68
2022/02/20 06:16:19;;;;;;;3.42;1.13;;;17.10;63.60;;;;;;5073918;28;20107;-68
2022/02/20 06:18:45;;;;;;;4.47;1.52;;;17.10;63.70;;;;;;5074221;28;20103;-68
2022/02/20 06:21:12;;;;;;;4.18;1.70;;;17.10;63.60;;;;;;5083437;28;20020;-68
2022/02/20 06:23:37;;;;;;;3.97;1.48;;;17.10;64.70;;;;;;5071359;28;20021;-68
2022/02/20 06:26:03;;;;;;;4.18;1.55;;;17.10;63.70;;;;;;5071954;28;20029;-68
2022/02/20 06:28:29;;;;;;;4.10;1.70;;;17.10;63.70;;;;;;5081171;28;20020;-68
2022/02/20 06:30:55;;;;;;;3.53;1.40;;;17.10;63.70;;;;;;5073777;28;20374;-68
2022/02/20 06:33:20;;;;;;;4.32;1.70;;;17.10;63.70;;;;;;5091877;28;20150;-68
2022/02/20 06:35:46;;;;;;;3.53;1.45;;;17.10;63.70;;;;;;5091914;28;20035;-68
2022/02/20 06:38:11;;;;;;;3.03;1.35;;;17.00;63.70;;;;;;5091585;28;20028;-68
2022/02/20 06:40:37;;;;;;;3.88;1.45;;;17.00;63.70;;;;;;5092050;28;20024;-68
2022/02/20 06:43:03;;;;;;;5.60;1.63;;;17.00;63.70;;;;;;5073715;28;20470;-68
2022/02/20 06:45:28;;;;;;;6.28;1.67;;;17.00;63.70;;;;;;5091742;28;20116;-68
2022/02/20 06:47:54;;;;;;;3.15;1.23;;;17.00;63.70;;;;;;5091833;28;20055;-68
2022/02/20 06:50:20;;;;;;;5.15;1.33;;;17.00;63.80;;;;;;5086099;28;20030;-68
2022/02/20 06:52:46;;;;;;;6.05;1.48;;;17.00;63.80;;;;;;5084825;28;20482;-69
2022/02/20 06:55:12;;;;;;;4.95;1.50;;;17.00;63.80;;;;;;5084968;28;20020;-68
2022/02/20 06:57:38;;;;;;;5.05;2.22;;;17.00;63.90;;;;;;5087207;28;20480;-68
2022/02/20 07:00:11;;;;;;;6.35;1.63;;;17.10;63.90;;;;;;5071611;28;20838;-68
2022/02/20 07:02:37;;;;;;;6.40;2.13;;;17.00;64.80;;;;;;5070167;28;20099;-69
2022/02/20 07:05:04;;;;;;;3.80;1.52;;;17.00;63.80;;;;;;5056279;28;20050;-68
2022/02/20 07:07:30;;;;;;;5.68;1.50;;;17.00;63.90;;;;;;5056259;28;20024;-68
2022/02/20 07:09:56;;;;;;;5.82;1.90;;;17.00;63.80;;;;;;5069991;28;20081;-68
2022/02/20 07:12:21;;;;;;;5.38;1.67;;;17.00;63.90;;;;;;5069465;28;20446;-68
2022/02/20 07:14:47;;;;;;;8.63;2.15;;;17.00;63.90;;;;;;5070132;28;20103;-68
2022/02/20 07:17:13;;;;;;;7.85;2.38;;;17.00;63.90;;;;;;5084471;28;20554;-68
2022/02/20 07:19:38;;;;;;;5.88;2.10;;;17.00;63.90;;;;;;5084882;28;20023;-68
2022/02/20 07:22:04;;;;;;;6.03;2.17;;;17.00;63.90;;;;;;5085200;28;20021;-68
2022/02/20 07:24:29;;;;;;;4.63;1.58;;;17.00;63.90;;;;;;5084755;28;20457;-68
2022/02/20 07:26:55;;;;;;;6.35;2.17;;;17.00;63.90;;;;;;5086656;28;20025;-68
2022/02/20 07:29:21;;;;;;;5.28;1.83;;;17.00;63.90;;;;;;5086817;28;20050;-68
2022/02/20 07:31:47;;;;;;;4.50;1.60;;;17.10;64.00;;;;;;5070636;28;20093;-68
2022/02/20 07:34:12;;;;;;;5.93;1.75;;;17.00;63.90;;;;;;5070973;28;20508;-68
2022/02/20 07:36:41;;;;;;;4.15;1.67;;;17.00;63.90;;;;;;5086914;28;20020;-68
2022/02/20 07:39:10;;;;;;;4.32;1.67;;;17.00;63.90;;;;;;5086417;28;20020;-69
2022/02/20 07:41:36;;;;;;;5.18;1.77;;;17.00;64.00;;;;;;5069277;28;20012;-68
2022/02/20 07:44:02;;;;;;;4.85;2.08;;;17.00;63.90;;;;;;5086480;28;20023;-68
2022/02/20 07:46:27;;;;;;;5.25;1.60;;;17.00;63.90;;;;;;5083444;28;20091;-68
2022/02/20 07:48:55;;;;;;;2.92;1.38;;;17.00;64.00;;;;;;5085247;28;20028;-68
2022/02/20 07:51:21;;;;;;;4.60;2.17;;;17.00;63.90;;;;;;5085553;28;20027;-68
2022/02/20 07:53:46;;;;;;;6.38;2.00;;;17.00;64.00;;;;;;5086373;28;20020;-68
2022/02/20 07:56:12;;;;;;;5.35;2.00;;;17.00;64.00;;;;;;5085931;28;20479;-68
2022/02/20 07:58:38;;;;;;;5.82;1.77;;;17.00;64.00;;;;;;5070303;28;20081;-68
2022/02/20 08:01:04;;;;;;;4.60;1.63;;;17.00;64.00;;;;;;5056429;28;20016;-68
2022/02/20 08:03:30;;;;;;;4.03;1.60;;;17.00;64.00;;;;;;5069756;28;20082;-68
2022/02/20 08:05:58;;;;;;;4.35;1.60;;;17.00;64.00;;;;;;5084327;28;20437;-68
2022/02/20 08:08:24;;;;;;;4.13;1.20;;;17.00;64.00;;;;;;5085562;28;20020;-69
2022/02/20 08:10:50;;;;;;;3.65;1.65;;;17.00;64.10;;;;;;5070475;28;20027;-68
2022/02/20 08:13:16;;;;;;;6.05;1.92;;;17.00;64.00;;;;;;5070372;28;20582;-68
2022/02/20 08:15:41;;;;;;;4.60;1.92;;;17.00;64.00;;;;;;5086397;28;20545;-68
2022/02/20 08:18:07;;;;;;;5.95;2.05;;;17.00;64.10;;;;;;5092103;28;20098;-68
2022/02/20 08:20:33;;;;;;;6.30;1.92;;;17.00;64.10;;;;;;5092618;28;20016;-68
2022/02/20 08:22:58;;;;;;;4.45;1.60;;;17.00;64.10;;;;;;5075064;28;20082;-68
2022/02/20 08:25:24;;;;;;;7.20;2.03;;;17.00;64.10;;;;;;5058511;28;20028;-68
2022/02/20 08:27:50;;;;;;;4.28;1.52;;;17.00;64.10;;;;;;5058484;28;20016;-68
2022/02/20 08:30:16;;;;;;;3.05;1.60;;;17.00;64.20;;;;;;5067575;28;20518;-68
2022/02/20 08:32:41;;;;;;;4.63;1.50;;;17.00;64.20;;;;;;5084262;28;20079;-69
2022/02/20 08:35:10;;;;;;;8.40;2.42;;;17.00;64.10;;;;;;5078023;28;20103;-68
2022/02/20 08:37:42;;;;;;;6.35;2.05;;;17.00;64.70;;;;;;5071697;28;20020;-68
2022/02/20 08:40:08;;;;;;;5.43;1.67;;;17.00;64.20;;;;;;5079485;28;20016;-68
2022/02/20 08:42:34;;;;;;;5.10;1.92;;;17.00;64.20;;;;;;5048335;28;20103;-69
2022/02/20 08:44:59;;;;;;;6.65;2.03;;;17.00;64.20;;;;;;5068489;28;20167;-68
2022/02/20 08:47:25;;;;;;;4.00;1.83;;;17.00;64.20;;;;;;5075960;28;20032;-69
2022/02/20 08:49:51;;;;;;;7.22;1.98;;;17.00;64.20;;;;;;5070738;28;20099;-69
2022/02/20 08:52:17;;;;;;;6.18;1.92;;;17.00;64.30;;;;;;5080313;28;20028;-69
2022/02/20 08:54:42;;;;;;;4.88;1.75;;;17.00;64.30;;;;;;5063778;28;20024;-69
2022/02/20 08:57:08;;;;;;;6.68;1.63;;;17.00;64.20;;;;;;5087360;28;20024;-68
2022/02/20 08:59:37;;;;;;;6.60;1.70;;;17.00;64.30;;;;;;5057840;28;20044;-69
2022/02/20 09:02:03;;;;;;;7.22;1.92;;;17.00;64.30;;;;;;5087516;28;20031;-69
2022/02/20 09:04:29;;;;;;;4.80;1.90;;;17.00;64.30;;;;;;5063692;28;20024;-68
2022/02/20 09:06:55;;;;;;;5.40;2.03;;;17.00;64.30;;;;;;5062152;28;20372;-69
2022/02/20 09:09:21;;;;;;;6.20;2.15;;;17.00;64.30;;;;;;5088537;28;20036;-68
2022/02/20 09:11:47;;;;;;;4.47;1.55;;;17.00;64.30;;;;;;5075407;28;20024;-68
2022/02/20 09:14:14;;;;;;;5.07;1.80;;;17.00;64.30;;;;;;5051304;28;20490;-68
2022/02/20 09:16:40;;;;;;;6.72;2.25;;;17.00;64.30;;;;;;5065143;28;20391;-68
2022/02/20 09:19:06;;;;;;;5.95;2.25;;;17.00;64.30;;;;;;5060006;28;20023;-68
2022/02/20 09:21:32;;;;;;;8.30;1.85;;;17.00;64.40;;;;;;5078986;28;20021;-68
2022/02/20 09:23:58;;;;;;;6.93;1.85;;;17.00;64.40;;;;;;5069969;28;20024;-68
2022/02/20 09:26:24;;;;;;;4.85;2.00;;;17.00;64.40;;;;;;5080242;28;20482;-69
2022/02/20 09:28:49;;;;;;;5.38;1.45;;;17.00;64.40;;;;;;5080324;28;20146;-68
2022/02/20 09:31:15;;;;;;;6.63;1.73;;;17.00;64.30;;;;;;5072360;28;20051;-68
2022/02/20 09:33:41;;;;;;;4.22;1.45;;;17.00;64.40;;;;;;5071977;28;20140;-69
2022/02/20 09:36:07;;;;;;;4.28;1.42;;;17.00;64.50;;;;;;5054533;28;20048;-75
2022/02/20 09:38:35;;;;;;;4.13;1.40;;;17.00;64.50;;;;;;5085377;28;20093;-75
2022/02/20 09:41:00;;;;;;;3.78;1.42;;;17.00;64.60;;;;;;5088016;28;20017;-74
2022/02/20 09:43:26;;;;;;;6.05;1.58;;;17.10;64.70;;;;;;5069061;28;20080;-76
2022/02/20 09:45:52;;;;;;;8.13;1.52;;;17.10;64.80;;;;;;5083029;28;20085;-76
2022/02/20 09:48:18;;;;;;;3.72;1.30;;;17.20;64.90;;;;;;5086334;28;20379;-76
2022/02/20 09:50:45;;;;;;;3.20;1.25;;;17.30;65.00;;;;;;5065917;28;20031;-73
2022/02/20 09:53:15;;;;;;;3.28;1.30;;;17.40;65.00;;;;;;5083182;28;20505;-72
2022/02/20 09:55:44;;;;;;;4.78;1.50;;;17.50;65.10;;;;;;5082039;28;20077;-71
2022/02/20 09:58:10;;;;;;;3.60;1.33;;;17.60;65.10;;;;;;5091519;28;20020;-72
2022/02/20 10:00:36;;;;;;;4.10;1.63;;;17.70;65.10;;;;;;5082780;28;20088;-72
2022/02/20 10:03:03;;;;;;;3.70;1.42;;;17.80;65.00;;;;;;5079743;28;20020;-72
2022/02/20 10:05:29;;;;;;;3.90;1.50;;;17.90;66.00;;;;;;5083437;28;20047;-72
2022/02/20 10:07:56;;;;;;;2.88;1.25;;;17.90;65.00;;;;;;5082472;28;20071;-72
2022/02/20 10:10:27;;;;;;;3.05;1.30;;;18.00;64.90;;;;;;5091357;28;20020;-72
2022/02/20 10:13:03;;;;;;;2.00;1.20;;;18.10;65.00;;;;;;5082262;28;20028;-72
2022/02/20 10:15:35;;;;;;;3.15;1.40;;;18.20;64.90;;;;;;5084021;28;20051;-72
2022/02/20 10:18:16;;;;;;;3.00;1.20;;;18.30;64.80;;;;;;5084011;28;20043;-72
2022/02/20 10:20:43;;;;;;;2.65;1.02;;;18.30;64.70;;;;;;5082810;28;20048;-72
2022/02/20 10:23:13;;;;;;;1.83;1.10;;;18.40;64.80;;;;;;5082585;28;20020;-72
2022/02/20 10:25:40;;;;;;;3.58;1.27;;;18.40;64.70;;;;;;5082225;28;20052;-72
2022/02/20 10:28:07;;;;;;;1.92;1.15;;;18.50;64.80;;;;;;5061789;28;20024;-72
2022/02/20 10:30:33;;;;;;;4.03;1.50;;;18.60;64.70;;;;;;5080088;28;20017;-72
2022/02/20 10:33:02;;;;;;;3.40;1.55;;;18.70;64.60;;;;;;5085671;28;20140;-72
2022/02/20 10:35:33;;;;;;;3.30;1.50;;;18.80;64.60;;;;;;5086621;28;20026;-72
2022/02/20 10:38:04;;;;;;;2.97;1.42;;;18.80;64.60;;;;;;5065867;28;20039;-72
2022/02/20 10:40:31;;;;;;;2.70;0.98;;;18.90;64.50;;;;;;5083447;28;20021;-72
2022/02/20 10:42:59;;;;;;;3.35;1.30;;;18.90;64.40;;;;;;5084721;28;20031;-72
2022/02/20 10:45:33;;;;;;;3.72;1.52;;;19.00;64.40;;;;;;5080693;28;20019;-72
2022/02/20 10:48:01;;;;;;;3.78;1.50;;;19.10;64.30;;;;;;5085671;28;20033;-72
2022/02/20 10:50:28;;;;;;;3.03;1.45;;;19.10;64.30;;;;;;5082313;28;20048;-72
2022/02/20 10:53:11;;;;;;;2.65;1.25;;;19.10;64.20;;;;;;5074322;28;20028;-72
2022/02/20 10:55:38;;;;;;;4.57;1.33;;;19.20;64.00;;;;;;5083244;28;20016;-73
2022/02/20 10:58:09;;;;;;;4.00;1.73;;;19.30;64.20;;;;;;5073442;28;20052;-72
2022/02/20 11:00:35;;;;;;;4.47;1.60;;;19.30;64.10;;;;;;5082538;28;20008;-74
2022/02/20 11:03:12;;;;;;;2.78;1.50;;;19.40;64.10;;;;;;5090865;28;20111;-73
2022/02/20 11:05:39;;;;;;;3.03;1.40;;;19.50;63.90;;;;;;5082682;28;20114;-74
2022/02/20 11:08:08;;;;;;;4.03;1.50;;;19.50;64.10;;;;;;5067210;28;20036;-73
2022/02/20 11:10:34;;;;;;;3.97;1.48;;;19.50;63.90;;;;;;5068013;28;20012;-73
2022/02/20 11:13:03;;;;;;;3.45;1.45;;;19.60;63.90;;;;;;5084001;28;20032;-73
2022/02/20 11:15:29;;;;;;;2.95;1.33;;;19.60;63.80;;;;;;5066347;28;20012;-73
2022/02/20 11:17:55;;;;;;;2.75;1.30;;;19.70;63.80;;;;;;5067735;28;20095;-73
2022/02/20 11:20:21;;;;;;;3.35;1.55;;;19.70;63.70;;;;;;5056514;28;20016;-72
2022/02/20 11:22:51;;;;;;;3.45;1.90;;;19.70;63.70;;;;;;5051598;28;20025;-71
2022/02/20 11:25:17;;;;;;;3.22;1.15;;;19.80;63.50;;;;;;5094060;28;20028;-71
2022/02/20 11:27:43;;;;;;;2.25;1.38;;;19.80;63.50;;;;;;5050609;28;20024;-71
2022/02/20 11:30:10;;;;;;;4.72;2.40;;;19.90;63.50;;;;;;5081535;28;20032;-72
2022/02/20 11:32:43;;;;;;;3.85;1.40;;;19.90;63.30;;;;;;5060962;28;20041;-72
2022/02/20 11:35:12;;;;;;;3.85;1.88;;;20.00;63.30;;;;;;5062853;28;20474;-72
2022/02/20 11:37:59;;;;;;;5.15;1.60;;;20.00;63.20;;;;;;5048156;28;20024;-72
2022/02/20 11:40:28;;;;;;;3.17;1.23;;;20.10;62.70;;;;;;5044307;28;20028;-72
2022/02/20 11:43:00;;;;;;;5.80;1.70;;;20.10;64.20;;;;;;5058704;28;20044;-72
2022/02/20 11:45:30;;;;;;;4.13;1.65;;;20.10;63.00;;;;;;5062860;28;20025;-71
2022/02/20 11:48:04;;;;;;;3.50;1.60;;;20.10;63.00;;;;;;5062628;28;20385;-72
2022/02/20 11:50:33;;;;;;;2.85;1.50;;;20.20;63.00;;;;;;5061201;28;20023;-71
2022/02/20 11:53:02;;;;;;;3.40;1.60;;;20.20;62.90;;;;;;5069393;28;20028;-72
2022/02/20 11:55:34;;;;;;;3.05;1.50;;;20.20;62.80;;;;;;5036929;28;20566;-75
2022/02/20 11:58:22;;;;;;;4.65;1.55;;;20.30;62.70;;;;;;5064823;28;20039;-75
2022/02/20 12:00:57;;;;;;;3.90;1.70;;;20.30;62.30;;;;;;5061306;28;20020;-75
2022/02/20 12:03:24;;;;;;;3.08;1.52;;;20.30;62.30;;;;;;5060329;28;20021;-76
2022/02/20 12:06:08;;;;;;;4.05;1.80;;;20.40;62.60;;;;;;5057231;28;20025;-76
2022/02/20 12:08:38;;;;;;;5.13;2.00;;;20.40;62.00;;;;;;5066675;28;20025;-75
2022/02/20 12:11:25;;;;;;;5.05;1.75;;;20.40;62.40;;;;;;5069882;28;20028;-76
2022/02/20 12:13:55;;;;;;;4.57;1.73;;;20.40;62.30;;;;;;5064756;28;20025;-75
2022/02/20 12:16:25;;;;;;;3.85;1.55;;;20.40;62.30;;;;;;5063585;28;20028;-75
2022/02/20 12:19:17;;;;;;;3.72;1.70;;;20.50;62.30;;;;;;5065677;28;20027;-75
2022/02/20 12:21:58;;;;;;;3.75;1.52;;;20.50;61.80;;;;;;5060871;28;20044;-76
2022/02/20 12:24:45;;;;;;;5.13;2.00;;;20.60;62.00;;;;;;5062123;28;20021;-74
2022/02/20 12:27:32;;;;;;;3.53;1.50;;;20.60;61.60;;;;;;5069433;28;20525;-77
2022/02/20 12:30:04;;;;;;;3.28;1.55;;;20.60;62.10;;;;;;5054544;28;20037;-78
2022/02/20 12:32:31;;;;;;;4.35;1.60;;;20.60;62.00;;;;;;5078635;28;20036;-75
2022/02/20 12:34:58;;;;;;;4.00;1.65;;;20.60;62.00;;;;;;5058625;28;20466;-75
2022/02/20 12:37:32;;;;;;;4.10;1.90;;;20.60;61.90;;;;;;5075036;28;20095;-76
2022/02/20 12:40:06;;;;;;;4.28;1.85;;;20.70;61.80;;;;;;5059718;28;20488;-74
2022/02/20 12:42:35;;;;;;;5.85;1.85;;;20.70;61.60;;;;;;5067502;28;20026;-75
2022/02/20 12:45:03;;;;;;;4.15;1.80;;;20.70;61.70;;;;;;5072584;28;20022;-72
2022/02/20 12:47:33;;;;;;;3.83;1.75;;;20.70;61.60;;;;;;5074656;28;20016;-72